createdAt,value
2018-09-11T00:00:53.604Z,0.00
2018-09-11T00:01:53.672Z,0.00
2018-09-11T00:02:53.732Z,0.00
2018-09-11T00:03:53.805Z,0.00
2018-09-11T00:04:53.865Z,0.00
2018-09-11T00:05:53.924Z,0.00
2018-09-11T00:06:53.989Z,0.00
2018-09-11T00:07:54.057Z,0.00
2018-09-11T00:08:54.304Z,0.00
2018-09-11T00:09:54.180Z,0.00
2018-09-11T00:10:54.248Z,0.00
2018-09-11T00:11:54.308Z,0.00
2018-09-11T00:12:54.372Z,0.00
2018-09-11T00:13:54.445Z,0.00
2018-09-11T00:14:54.508Z,0.00
2018-09-11T00:15:54.564Z,0.00
2018-09-11T00:16:54.632Z,0.00
2018-09-11T00:17:54.693Z,0.00
2018-09-11T00:18:54.765Z,0.00
2018-09-11T00:19:54.832Z,0.00
2018-09-11T00:20:54.885Z,0.00
2018-09-11T00:21:54.949Z,0.00
2018-09-11T00:22:55.013Z,0.00
2018-09-11T00:23:55.349Z,0.00
2018-09-11T00:24:55.141Z,0.00
2018-09-11T00:25:55.205Z,0.00
2018-09-11T00:26:55.269Z,0.00
2018-09-11T00:27:55.333Z,0.00
2018-09-11T00:28:55.406Z,0.00
2018-09-11T00:29:55.469Z,0.00
2018-09-11T00:30:55.525Z,0.00
2018-09-11T00:31:55.593Z,0.00
2018-09-11T00:32:55.653Z,0.00
2018-09-11T00:33:55.730Z,0.00
2018-09-11T00:34:55.790Z,0.00
2018-09-11T00:35:55.850Z,0.00
2018-09-11T00:36:55.909Z,0.00
2018-09-11T00:37:55.974Z,0.00
2018-09-11T00:38:56.045Z,0.00
2018-09-11T00:39:56.112Z,0.00
2018-09-11T00:40:56.166Z,0.00
2018-09-11T00:41:56.229Z,0.00
2018-09-11T00:42:56.298Z,0.00
2018-09-11T00:43:56.366Z,0.00
2018-09-11T00:44:56.430Z,0.00
2018-09-11T00:45:56.486Z,0.00
2018-09-11T00:46:56.554Z,0.00
2018-09-11T00:47:56.625Z,0.00
2018-09-11T00:48:56.762Z,0.00
2018-09-11T00:49:56.750Z,0.00
2018-09-11T00:50:56.806Z,0.00
2018-09-11T00:51:56.935Z,0.00
2018-09-11T00:52:56.934Z,0.00
2018-09-11T00:53:57.006Z,0.00
2018-09-11T00:54:57.075Z,0.00
2018-09-11T00:55:57.130Z,0.00
2018-09-11T00:56:57.191Z,0.00
2018-09-11T00:57:57.255Z,0.00
2018-09-11T00:58:57.478Z,0.00
2018-09-11T00:59:57.382Z,0.00
2018-09-11T01:00:57.446Z,0.00
2018-09-11T01:01:57.511Z,0.00
2018-09-11T01:02:57.577Z,0.00
2018-09-11T01:03:57.649Z,0.00
2018-09-11T01:04:57.711Z,0.00
2018-09-11T01:05:57.769Z,0.00
2018-09-11T01:06:57.830Z,0.00
2018-09-11T01:07:57.899Z,0.00
2018-09-11T01:08:57.966Z,0.00
2018-09-11T01:09:58.033Z,0.00
2018-09-11T01:10:58.087Z,0.00
2018-09-11T01:11:58.151Z,0.00
2018-09-11T01:12:58.215Z,0.00
2018-09-11T01:13:58.279Z,0.00
2018-09-11T01:14:58.456Z,0.00
2018-09-11T01:15:58.410Z,0.00
2018-09-11T01:16:58.471Z,0.00
2018-09-11T01:17:58.536Z,0.00
2018-09-11T01:18:58.599Z,0.00
2018-09-11T01:19:58.671Z,0.00
2018-09-11T01:20:58.741Z,0.00
2018-09-11T01:21:58.794Z,0.00
2018-09-11T01:22:58.856Z,0.00
2018-09-11T01:23:58.919Z,0.00
2018-09-11T01:24:58.988Z,0.00
2018-09-11T01:25:59.060Z,0.00
2018-09-11T01:26:59.114Z,0.00
2018-09-11T01:27:59.176Z,0.00
2018-09-11T01:28:59.240Z,0.00
2018-09-11T01:29:59.411Z,0.00
2018-09-11T01:30:59.372Z,0.00
2018-09-11T01:31:59.432Z,0.00
2018-09-11T01:32:59.492Z,0.00
2018-09-11T01:33:59.555Z,0.00
2018-09-11T01:34:59.627Z,0.00
2018-09-11T01:35:59.691Z,0.00
2018-09-11T01:36:59.747Z,0.00
2018-09-11T01:37:59.812Z,0.00
2018-09-11T01:38:59.876Z,0.00
2018-09-11T01:39:59.952Z,0.00
2018-09-11T01:41:00.012Z,0.00
2018-09-11T01:42:00.069Z,0.00
2018-09-11T01:43:00.133Z,0.00
2018-09-11T01:44:00.196Z,0.00
2018-09-11T01:45:00.445Z,0.00
2018-09-11T01:46:00.324Z,0.00
2018-09-11T01:47:00.388Z,0.00
2018-09-11T01:48:00.453Z,0.00
2018-09-11T01:49:00.517Z,0.00
2018-09-11T01:50:00.589Z,0.00
2018-09-11T01:51:00.649Z,0.00
2018-09-11T01:52:00.711Z,0.00
2018-09-11T01:53:00.775Z,0.00
2018-09-11T01:54:00.833Z,0.00
2018-09-11T01:55:00.905Z,0.00
2018-09-11T01:56:00.969Z,0.00
2018-09-11T01:57:01.025Z,0.00
2018-09-11T01:58:01.090Z,0.00
2018-09-11T01:59:01.153Z,0.00
2018-09-11T02:00:01.241Z,0.00
2018-09-11T02:01:01.286Z,0.00
2018-09-11T02:02:01.346Z,0.00
2018-09-11T02:03:01.405Z,0.00
2018-09-11T02:04:01.477Z,0.00
2018-09-11T02:05:01.546Z,0.00
2018-09-11T02:06:01.606Z,0.00
2018-09-11T02:07:01.662Z,0.00
2018-09-11T02:08:01.726Z,0.00
2018-09-11T02:09:01.797Z,0.00
2018-09-11T02:10:01.862Z,0.00
2018-09-11T02:11:01.926Z,0.00
2018-09-11T02:12:01.986Z,0.00
2018-09-11T02:13:02.046Z,0.00
2018-09-11T02:14:02.110Z,0.00
2018-09-11T02:15:02.174Z,0.00
2018-09-11T02:16:02.478Z,0.00
2018-09-11T02:17:02.298Z,0.00
2018-09-11T02:18:02.362Z,0.00
2018-09-11T02:19:02.426Z,0.00
2018-09-11T02:20:02.490Z,0.00
2018-09-11T02:21:02.562Z,0.00
2018-09-11T02:22:02.630Z,0.00
2018-09-11T02:23:02.682Z,0.00
2018-09-11T02:24:02.746Z,0.00
2018-09-11T02:25:02.810Z,0.00
2018-09-11T02:26:02.878Z,0.00
2018-09-11T02:27:02.946Z,0.00
2018-09-11T02:28:03.010Z,0.00
2018-09-11T02:29:03.062Z,0.00
2018-09-11T02:30:03.127Z,0.00
2018-09-11T02:31:03.386Z,0.00
2018-09-11T02:32:03.259Z,0.00
2018-09-11T02:33:03.320Z,0.00
2018-09-11T02:34:03.383Z,0.00
2018-09-11T02:35:03.447Z,0.00
2018-09-11T02:36:03.515Z,0.00
2018-09-11T02:37:03.579Z,0.00
2018-09-11T02:38:03.639Z,0.00
2018-09-11T02:39:03.720Z,0.00
2018-09-11T02:40:03.763Z,0.00
2018-09-11T02:41:03.835Z,0.00
2018-09-11T02:42:03.900Z,0.00
2018-09-11T02:43:03.955Z,0.00
2018-09-11T02:44:04.019Z,0.00
2018-09-11T02:45:04.084Z,0.00
2018-09-11T02:46:04.232Z,0.00
2018-09-11T02:47:04.211Z,0.00
2018-09-11T02:48:04.272Z,0.00
2018-09-11T02:49:04.335Z,0.00
2018-09-11T02:50:04.399Z,0.00
2018-09-11T02:51:04.471Z,0.00
2018-09-11T02:52:04.536Z,0.00
2018-09-11T02:53:04.596Z,0.00
2018-09-11T02:54:04.659Z,0.00
2018-09-11T02:55:04.720Z,0.00
2018-09-11T02:56:04.787Z,0.00
2018-09-11T02:57:04.851Z,0.00
2018-09-11T02:58:04.908Z,0.00
2018-09-11T02:59:04.972Z,0.00
2018-09-11T03:00:05.035Z,0.00
2018-09-11T03:01:05.247Z,0.00
2018-09-11T03:02:05.166Z,0.00
2018-09-11T03:03:05.228Z,0.00
2018-09-11T03:04:05.292Z,0.00
2018-09-11T03:05:05.352Z,0.00
2018-09-11T03:06:05.424Z,0.00
2018-09-11T03:07:05.488Z,0.00
2018-09-11T03:08:05.551Z,0.00
2018-09-11T03:09:05.612Z,0.00
2018-09-11T03:10:05.672Z,0.00
2018-09-11T03:11:05.740Z,0.00
2018-09-11T03:12:05.804Z,0.00
2018-09-11T03:13:05.859Z,0.00
2018-09-11T03:14:05.924Z,0.00
2018-09-11T03:15:05.988Z,0.00
2018-09-11T03:16:06.060Z,0.00
2018-09-11T03:17:06.126Z,0.00
2018-09-11T03:18:06.180Z,0.00
2018-09-11T03:19:06.247Z,0.00
2018-09-11T03:20:06.308Z,0.00
2018-09-11T03:21:06.377Z,0.00
2018-09-11T03:22:06.440Z,0.00
2018-09-11T03:23:06.500Z,0.00
2018-09-11T03:24:06.563Z,0.00
2018-09-11T03:25:06.624Z,0.00
2018-09-11T03:26:06.696Z,0.00
2018-09-11T03:27:06.760Z,0.00
2018-09-11T03:28:06.820Z,0.00
2018-09-11T03:29:06.880Z,0.00
2018-09-11T03:30:06.945Z,0.00
2018-09-11T03:31:07.024Z,0.00
2018-09-11T03:32:07.077Z,0.00
2018-09-11T03:33:07.133Z,0.00
2018-09-11T03:34:07.196Z,0.00
2018-09-11T03:35:07.260Z,0.00
2018-09-11T03:36:07.335Z,0.00
2018-09-11T03:37:07.393Z,0.00
2018-09-11T03:38:07.453Z,0.00
2018-09-11T03:39:07.519Z,0.00
2018-09-11T03:40:07.583Z,0.00
2018-09-11T03:41:07.649Z,0.00
2018-09-11T03:42:07.713Z,0.00
2018-09-11T03:43:07.769Z,0.00
2018-09-11T03:44:07.920Z,0.00
2018-09-11T03:45:07.949Z,0.00
2018-09-11T03:46:07.965Z,0.00
2018-09-11T03:47:08.030Z,0.00
2018-09-11T03:48:08.090Z,0.00
2018-09-11T03:49:08.150Z,0.00
2018-09-11T03:50:08.214Z,0.00
2018-09-11T03:51:08.279Z,0.00
2018-09-11T03:52:08.442Z,0.00
2018-09-11T03:53:08.406Z,0.00
2018-09-11T03:54:08.470Z,0.00
2018-09-11T03:55:08.533Z,0.00
2018-09-11T03:56:08.598Z,0.00
2018-09-11T03:57:08.665Z,0.00
2018-09-11T03:58:08.733Z,0.00
2018-09-11T03:59:08.794Z,0.00
2018-09-11T04:00:08.850Z,0.00
2018-09-11T04:01:08.915Z,0.00
2018-09-11T04:02:08.986Z,0.00
2018-09-11T04:03:09.051Z,0.00
2018-09-11T04:04:09.106Z,0.00
2018-09-11T04:05:09.170Z,0.00
2018-09-11T04:06:09.234Z,0.00
2018-09-11T04:07:09.299Z,0.00
2018-09-11T04:08:09.626Z,0.00
2018-09-11T04:09:09.422Z,0.00
2018-09-11T04:10:09.487Z,0.00
2018-09-11T04:11:09.551Z,0.00
2018-09-11T04:12:09.614Z,0.00
2018-09-11T04:13:09.682Z,0.00
2018-09-11T04:14:09.747Z,0.00
2018-09-11T04:15:09.807Z,0.00
2018-09-11T04:16:09.870Z,0.00
2018-09-11T04:17:09.930Z,0.00
2018-09-11T04:18:10.002Z,0.00
2018-09-11T04:19:10.066Z,0.00
2018-09-11T04:20:10.122Z,0.00
2018-09-11T04:21:10.186Z,0.00
2018-09-11T04:22:10.250Z,0.00
2018-09-11T04:23:10.314Z,0.00
2018-09-11T04:24:10.398Z,0.00
2018-09-11T04:25:10.442Z,0.00
2018-09-11T04:26:10.507Z,0.00
2018-09-11T04:27:10.573Z,0.00
2018-09-11T04:28:10.634Z,0.00
2018-09-11T04:29:10.703Z,0.00
2018-09-11T04:30:10.767Z,0.00
2018-09-11T04:31:10.822Z,0.00
2018-09-11T04:32:10.887Z,0.00
2018-09-11T04:33:10.951Z,0.00
2018-09-11T04:34:11.023Z,0.00
2018-09-11T04:35:11.088Z,0.00
2018-09-11T04:36:11.145Z,0.00
2018-09-11T04:37:11.207Z,0.00
2018-09-11T04:38:11.271Z,0.00
2018-09-11T04:39:11.343Z,0.00
2018-09-11T04:40:11.407Z,0.00
2018-09-11T04:41:11.463Z,0.00
2018-09-11T04:42:11.527Z,0.00
2018-09-11T04:43:11.694Z,0.00
2018-09-11T04:44:11.660Z,0.00
2018-09-11T04:45:11.723Z,0.00
2018-09-11T04:46:11.784Z,0.00
2018-09-11T04:47:11.848Z,0.00
2018-09-11T04:48:11.913Z,0.00
2018-09-11T04:49:11.979Z,0.00
2018-09-11T04:50:12.043Z,0.00
2018-09-11T04:51:12.099Z,0.00
2018-09-11T04:52:12.163Z,0.00
2018-09-11T04:53:12.229Z,0.00
2018-09-11T04:54:12.292Z,0.00
2018-09-11T04:55:12.379Z,0.00
2018-09-11T04:56:12.464Z,0.00
2018-09-11T04:57:12.483Z,0.00
2018-09-11T04:58:12.547Z,0.00
2018-09-11T04:59:12.611Z,0.00
2018-09-11T05:00:12.736Z,0.00
2018-09-11T05:01:12.752Z,0.00
2018-09-11T05:02:12.805Z,0.00
2018-09-11T05:03:12.868Z,0.00
2018-09-11T05:04:12.931Z,5.63
2018-09-11T05:05:13.008Z,5.63
2018-09-11T05:06:13.125Z,5.63
2018-09-11T05:07:13.125Z,5.63
2018-09-11T05:08:13.189Z,5.63
2018-09-11T05:09:13.248Z,5.63
2018-09-11T05:10:13.405Z,5.63
2018-09-11T05:11:13.377Z,5.63
2018-09-11T05:12:13.440Z,5.63
2018-09-11T05:13:13.512Z,11.25
2018-09-11T05:14:13.572Z,11.25
2018-09-11T05:15:13.648Z,16.88
2018-09-11T05:16:13.708Z,16.88
2018-09-11T05:17:13.760Z,16.88
2018-09-11T05:18:13.825Z,16.88
2018-09-11T05:19:13.934Z,16.88
2018-09-11T05:20:13.960Z,22.50
2018-09-11T05:21:14.021Z,22.50
2018-09-11T05:22:14.081Z,22.50
2018-09-11T05:23:14.145Z,22.50
2018-09-11T05:24:14.208Z,28.13
2018-09-11T05:25:14.273Z,28.13
2018-09-11T05:26:14.489Z,28.13
2018-09-11T05:27:14.405Z,28.13
2018-09-11T05:28:14.465Z,33.75
2018-09-11T05:29:14.529Z,33.75
2018-09-11T05:30:14.593Z,33.75
2018-09-11T05:31:14.661Z,39.38
2018-09-11T05:32:14.725Z,39.38
2018-09-11T05:33:14.781Z,39.38
2018-09-11T05:34:14.845Z,45.00
2018-09-11T05:35:14.909Z,45.00
2018-09-11T05:36:14.981Z,45.00
2018-09-11T05:37:15.050Z,45.00
2018-09-11T05:38:15.101Z,50.63
2018-09-11T05:39:15.166Z,50.63
2018-09-11T05:40:15.233Z,50.63
2018-09-11T05:41:15.294Z,50.63
2018-09-11T05:42:15.509Z,50.63
2018-09-11T05:43:15.421Z,56.25
2018-09-11T05:44:15.486Z,56.25
2018-09-11T05:45:15.549Z,56.25
2018-09-11T05:46:15.613Z,56.25
2018-09-11T05:47:15.703Z,56.25
2018-09-11T05:48:15.745Z,61.88
2018-09-11T05:49:15.805Z,61.88
2018-09-11T05:50:15.869Z,61.88
2018-09-11T05:51:15.933Z,61.88
2018-09-11T05:52:16.002Z,67.50
2018-09-11T05:53:16.068Z,67.50
2018-09-11T05:54:16.124Z,67.50
2018-09-11T05:55:16.190Z,73.13
2018-09-11T05:56:16.250Z,73.13
2018-09-11T05:57:16.318Z,78.75
2018-09-11T05:58:16.587Z,78.75
2018-09-11T05:59:16.442Z,84.38
2018-09-11T06:00:16.506Z,84.38
2018-09-11T06:01:16.570Z,84.38
2018-09-11T06:02:16.636Z,84.38
2018-09-11T06:03:16.705Z,90.00
2018-09-11T06:04:16.770Z,90.00
2018-09-11T06:05:16.826Z,90.00
2018-09-11T06:06:16.894Z,90.00
2018-09-11T06:07:16.959Z,90.00
2018-09-11T06:08:17.026Z,95.63
2018-09-11T06:09:17.097Z,95.63
2018-09-11T06:10:17.146Z,95.63
2018-09-11T06:11:17.212Z,101.25
2018-09-11T06:12:17.275Z,101.25
2018-09-11T06:13:17.346Z,101.25
2018-09-11T06:14:17.413Z,106.88
2018-09-11T06:15:17.467Z,106.88
2018-09-11T06:16:17.564Z,112.50
2018-09-11T06:17:17.598Z,112.50
2018-09-11T06:18:17.669Z,112.50
2018-09-11T06:19:17.730Z,112.50
2018-09-11T06:20:17.786Z,112.50
2018-09-11T06:21:17.850Z,112.50
2018-09-11T06:22:17.914Z,112.50
2018-09-11T06:23:17.986Z,118.13
2018-09-11T06:24:18.051Z,112.50
2018-09-11T06:25:18.109Z,118.13
2018-09-11T06:26:18.171Z,118.13
2018-09-11T06:27:18.238Z,112.50
2018-09-11T06:28:18.298Z,112.50
2018-09-11T06:29:18.475Z,112.50
2018-09-11T06:30:18.430Z,118.13
2018-09-11T06:31:18.490Z,118.13
2018-09-11T06:32:18.559Z,118.13
2018-09-11T06:33:18.623Z,118.13
2018-09-11T06:34:18.691Z,123.75
2018-09-11T06:35:18.785Z,123.75
2018-09-11T06:36:18.815Z,129.38
2018-09-11T06:37:18.886Z,135.00
2018-09-11T06:38:18.943Z,135.00
2018-09-11T06:39:19.020Z,135.00
2018-09-11T06:40:19.098Z,140.63
2018-09-11T06:41:19.169Z,140.63
2018-09-11T06:42:19.203Z,140.63
2018-09-11T06:43:19.263Z,140.63
2018-09-11T06:44:19.335Z,146.25
2018-09-11T06:45:19.399Z,146.25
2018-09-11T06:46:19.455Z,146.25
2018-09-11T06:47:19.520Z,146.25
2018-09-11T06:48:19.584Z,146.25
2018-09-11T06:49:19.656Z,151.88
2018-09-11T06:50:19.723Z,157.50
2018-09-11T06:51:19.779Z,163.13
2018-09-11T06:52:19.846Z,163.13
2018-09-11T06:53:19.908Z,168.75
2018-09-11T06:54:19.976Z,168.75
2018-09-11T06:55:20.044Z,174.38
2018-09-11T06:56:20.100Z,185.63
2018-09-11T06:57:20.168Z,196.88
2018-09-11T06:58:20.228Z,196.88
2018-09-11T06:59:20.292Z,202.50
2018-09-11T07:00:20.516Z,208.13
2018-09-11T07:01:20.439Z,208.13
2018-09-11T07:02:20.484Z,213.75
2018-09-11T07:03:20.552Z,225.00
2018-09-11T07:04:20.616Z,241.88
2018-09-11T07:05:20.692Z,236.25
2018-09-11T07:06:20.764Z,225.00
2018-09-11T07:07:20.808Z,230.63
2018-09-11T07:08:20.885Z,225.00
2018-09-11T07:09:20.936Z,219.38
2018-09-11T07:10:21.011Z,219.38
2018-09-11T07:11:21.077Z,219.38
2018-09-11T07:12:21.133Z,230.63
2018-09-11T07:13:21.201Z,230.63
2018-09-11T07:14:21.268Z,208.13
2018-09-11T07:15:21.336Z,196.88
2018-09-11T07:16:21.401Z,191.25
2018-09-11T07:17:21.457Z,196.88
2018-09-11T07:18:21.523Z,219.38
2018-09-11T07:19:21.589Z,219.38
2018-09-11T07:20:21.938Z,225.00
2018-09-11T07:21:21.725Z,213.75
2018-09-11T07:22:21.785Z,264.38
2018-09-11T07:23:21.848Z,315.00
2018-09-11T07:24:21.913Z,320.63
2018-09-11T07:25:21.985Z,331.88
2018-09-11T07:26:22.050Z,292.50
2018-09-11T07:27:22.109Z,264.38
2018-09-11T07:28:22.173Z,270.00
2018-09-11T07:29:22.238Z,348.75
2018-09-11T07:30:22.330Z,230.63
2018-09-11T07:31:22.645Z,202.50
2018-09-11T07:32:22.478Z,185.63
2018-09-11T07:33:22.504Z,219.38
2018-09-11T07:34:22.566Z,241.88
2018-09-11T07:35:22.634Z,343.13
2018-09-11T07:36:22.819Z,444.38
2018-09-11T07:37:22.778Z,646.88
2018-09-11T07:38:22.831Z,680.63
2018-09-11T07:39:22.896Z,1293.75
2018-09-11T07:40:22.962Z,950.63
2018-09-11T07:41:23.033Z,1158.75
2018-09-11T07:42:23.105Z,568.13
2018-09-11T07:43:23.162Z,720.00
2018-09-11T07:44:23.230Z,1063.13
2018-09-11T07:45:23.302Z,540.00
2018-09-11T07:46:23.454Z,1063.13
2018-09-11T07:47:23.434Z,849.38
2018-09-11T07:48:23.503Z,393.75
2018-09-11T07:49:23.581Z,585.00
2018-09-11T07:50:23.638Z,281.25
2018-09-11T07:51:23.718Z,247.50
2018-09-11T07:52:23.819Z,281.25
2018-09-11T07:53:23.843Z,331.88
2018-09-11T07:54:23.914Z,360.00
2018-09-11T07:55:23.982Z,382.50
2018-09-11T07:56:24.059Z,675.00
2018-09-11T07:57:24.141Z,286.88
2018-09-11T07:58:24.186Z,360.00
2018-09-11T07:59:24.255Z,286.88
2018-09-11T08:00:24.323Z,258.75
2018-09-11T08:01:24.403Z,309.38
2018-09-11T08:02:24.469Z,298.13
2018-09-11T08:03:24.529Z,292.50
2018-09-11T08:04:24.599Z,405.00
2018-09-11T08:05:24.663Z,320.63
2018-09-11T08:06:24.739Z,354.38
2018-09-11T08:07:24.807Z,309.38
2018-09-11T08:08:24.871Z,303.75
2018-09-11T08:09:24.962Z,315.00
2018-09-11T08:10:25.007Z,326.25
2018-09-11T08:11:25.339Z,303.75
2018-09-11T08:12:25.144Z,303.75
2018-09-11T08:13:25.211Z,303.75
2018-09-11T08:14:25.295Z,320.63
2018-09-11T08:15:25.348Z,331.88
2018-09-11T08:16:25.468Z,410.63
2018-09-11T08:17:25.487Z,573.75
2018-09-11T08:18:25.551Z,523.13
2018-09-11T08:19:25.620Z,270.00
2018-09-11T08:20:25.688Z,466.88
2018-09-11T08:21:25.764Z,371.25
2018-09-11T08:22:25.831Z,376.88
2018-09-11T08:23:25.895Z,438.75
2018-09-11T08:24:25.963Z,427.50
2018-09-11T08:25:26.032Z,427.50
2018-09-11T08:26:26.196Z,427.50
2018-09-11T08:27:26.176Z,405.00
2018-09-11T08:28:26.244Z,393.75
2018-09-11T08:29:26.372Z,174.38
2018-09-11T08:30:26.384Z,405.00
2018-09-11T08:31:26.460Z,393.75
2018-09-11T08:32:26.536Z,393.75
2018-09-11T08:33:26.596Z,388.13
2018-09-11T08:34:26.668Z,393.75
2018-09-11T08:35:26.744Z,388.13
2018-09-11T08:36:26.817Z,393.75
2018-09-11T08:37:26.888Z,388.13
2018-09-11T08:38:26.953Z,399.38
2018-09-11T08:39:27.024Z,393.75
2018-09-11T08:40:27.097Z,399.38
2018-09-11T08:41:27.169Z,393.75
2018-09-11T08:42:27.257Z,399.38
2018-09-11T08:43:27.313Z,399.38
2018-09-11T08:44:27.385Z,376.88
2018-09-11T08:45:27.457Z,393.75
2018-09-11T08:46:27.530Z,393.75
2018-09-11T08:47:27.609Z,382.50
2018-09-11T08:48:27.685Z,388.13
2018-09-11T08:49:27.750Z,382.50
2018-09-11T08:50:27.825Z,382.50
2018-09-11T08:51:27.897Z,371.25
2018-09-11T08:52:28.042Z,376.88
2018-09-11T08:53:28.053Z,371.25
2018-09-11T08:54:28.113Z,360.00
2018-09-11T08:55:28.189Z,331.88
2018-09-11T08:56:28.262Z,365.63
2018-09-11T08:57:28.350Z,360.00
2018-09-11T08:58:28.430Z,365.63
2018-09-11T08:59:28.481Z,360.00
2018-09-11T09:00:28.553Z,365.63
2018-09-11T09:01:28.630Z,360.00
2018-09-11T09:02:28.709Z,354.38
2018-09-11T09:03:28.785Z,354.38
2018-09-11T09:04:28.852Z,365.63
2018-09-11T09:05:28.922Z,365.63
2018-09-11T09:06:28.998Z,360.00
2018-09-11T09:07:29.224Z,343.13
2018-09-11T09:08:29.154Z,354.38
2018-09-11T09:09:29.218Z,360.00
2018-09-11T09:10:29.290Z,365.63
2018-09-11T09:11:29.365Z,354.38
2018-09-11T09:12:29.442Z,337.50
2018-09-11T09:13:29.519Z,343.13
2018-09-11T09:14:29.585Z,343.13
2018-09-11T09:15:29.688Z,343.13
2018-09-11T09:16:29.730Z,348.75
2018-09-11T09:17:29.810Z,343.13
2018-09-11T09:18:29.882Z,337.50
2018-09-11T09:19:29.950Z,337.50
2018-09-11T09:20:30.025Z,331.88
2018-09-11T09:21:30.095Z,315.00
2018-09-11T09:22:30.325Z,326.25
2018-09-11T09:23:30.242Z,320.63
2018-09-11T09:24:30.314Z,320.63
2018-09-11T09:25:30.402Z,275.63
2018-09-11T09:26:30.458Z,180.00
2018-09-11T09:27:30.586Z,315.00
2018-09-11T09:28:30.611Z,326.25
2018-09-11T09:29:30.674Z,320.63
2018-09-11T09:30:30.747Z,326.25
2018-09-11T09:31:30.826Z,320.63
2018-09-11T09:32:30.901Z,320.63
2018-09-11T09:33:30.971Z,320.63
2018-09-11T09:34:31.035Z,315.00
2018-09-11T09:35:31.109Z,320.63
2018-09-11T09:36:31.229Z,140.63
2018-09-11T09:37:31.251Z,320.63
2018-09-11T09:38:31.366Z,320.63
2018-09-11T09:39:31.395Z,315.00
2018-09-11T09:40:31.467Z,326.25
2018-09-11T09:41:31.539Z,320.63
2018-09-11T09:42:31.623Z,326.25
2018-09-11T09:43:31.691Z,315.00
2018-09-11T09:44:31.760Z,309.38
2018-09-11T09:45:31.823Z,315.00
2018-09-11T09:46:31.895Z,309.38
2018-09-11T09:47:31.967Z,303.75
2018-09-11T09:48:32.047Z,298.13
2018-09-11T09:49:32.132Z,303.75
2018-09-11T09:50:32.183Z,298.13
2018-09-11T09:51:32.255Z,303.75
2018-09-11T09:52:32.327Z,298.13
2018-09-11T09:53:32.403Z,303.75
2018-09-11T09:54:32.480Z,309.38
2018-09-11T09:55:32.559Z,298.13
2018-09-11T09:56:32.611Z,292.50
2018-09-11T09:57:32.683Z,292.50
2018-09-11T09:58:32.759Z,281.25
2018-09-11T09:59:32.840Z,281.25
2018-09-11T10:00:32.895Z,286.88
2018-09-11T10:01:32.967Z,281.25
2018-09-11T10:02:33.031Z,275.63
2018-09-11T10:03:33.472Z,275.63
2018-09-11T10:04:33.180Z,270.00
2018-09-11T10:05:33.247Z,275.63
2018-09-11T10:06:33.319Z,270.00
2018-09-11T10:07:33.391Z,270.00
2018-09-11T10:08:33.463Z,264.38
2018-09-11T10:09:33.623Z,264.38
2018-09-11T10:10:33.604Z,275.63
2018-09-11T10:11:33.689Z,270.00
2018-09-11T10:12:33.743Z,258.75
2018-09-11T10:13:33.819Z,258.75
2018-09-11T10:14:33.894Z,258.75
2018-09-11T10:15:33.972Z,258.75
2018-09-11T10:16:34.031Z,258.75
2018-09-11T10:17:34.163Z,258.75
2018-09-11T10:18:34.168Z,258.75
2018-09-11T10:19:34.236Z,253.13
2018-09-11T10:20:34.424Z,253.13
2018-09-11T10:21:34.376Z,258.75
2018-09-11T10:22:34.452Z,253.13
2018-09-11T10:23:34.516Z,253.13
2018-09-11T10:24:34.589Z,258.75
2018-09-11T10:25:34.666Z,253.13
2018-09-11T10:26:34.736Z,253.13
2018-09-11T10:27:34.868Z,247.50
2018-09-11T10:28:34.869Z,247.50
2018-09-11T10:29:34.936Z,247.50
2018-09-11T10:30:35.012Z,247.50
2018-09-11T10:31:35.084Z,253.13
2018-09-11T10:32:35.151Z,247.50
2018-09-11T10:33:35.257Z,241.88
2018-09-11T10:34:35.288Z,241.88
2018-09-11T10:35:35.364Z,241.88
2018-09-11T10:36:35.437Z,241.88
2018-09-11T10:37:35.497Z,241.88
2018-09-11T10:38:35.568Z,241.88
2018-09-11T10:39:35.643Z,241.88
2018-09-11T10:40:35.713Z,236.25
2018-09-11T10:41:35.784Z,236.25
2018-09-11T10:42:35.845Z,230.63
2018-09-11T10:43:35.917Z,236.25
2018-09-11T10:44:35.989Z,230.63
2018-09-11T10:45:36.100Z,230.63
2018-09-11T10:46:36.133Z,236.25
2018-09-11T10:47:36.193Z,230.63
2018-09-11T10:48:36.322Z,225.00
2018-09-11T10:49:36.333Z,219.38
2018-09-11T10:50:36.409Z,219.38
2018-09-11T10:51:36.484Z,213.75
2018-09-11T10:52:36.545Z,219.38
2018-09-11T10:53:36.617Z,230.63
2018-09-11T10:54:36.681Z,219.38
2018-09-11T10:55:36.757Z,225.00
2018-09-11T10:56:36.830Z,230.63
2018-09-11T10:57:36.889Z,225.00
2018-09-11T10:58:36.965Z,225.00
2018-09-11T10:59:37.030Z,225.00
2018-09-11T11:00:37.370Z,225.00
2018-09-11T11:01:37.170Z,225.00
2018-09-11T11:02:37.245Z,225.00
2018-09-11T11:03:37.310Z,225.00
2018-09-11T11:04:37.378Z,225.00
2018-09-11T11:05:37.458Z,225.00
2018-09-11T11:06:37.522Z,225.00
2018-09-11T11:07:37.586Z,230.63
2018-09-11T11:08:37.662Z,230.63
2018-09-11T11:09:37.730Z,225.00
2018-09-11T11:10:37.802Z,219.38
2018-09-11T11:11:37.870Z,225.00
2018-09-11T11:12:37.940Z,219.38
2018-09-11T11:13:38.004Z,225.00
2018-09-11T11:14:38.070Z,213.75
2018-09-11T11:15:38.254Z,213.75
2018-09-11T11:16:38.210Z,219.38
2018-09-11T11:17:38.282Z,219.38
2018-09-11T11:18:38.350Z,219.38
2018-09-11T11:19:38.419Z,225.00
2018-09-11T11:20:38.498Z,230.63
2018-09-11T11:21:38.566Z,219.38
2018-09-11T11:22:38.631Z,225.00
2018-09-11T11:23:38.698Z,219.38
2018-09-11T11:24:38.766Z,225.00
2018-09-11T11:25:38.847Z,225.00
2018-09-11T11:26:38.918Z,230.63
2018-09-11T11:27:39.003Z,225.00
2018-09-11T11:28:39.051Z,225.00
2018-09-11T11:29:39.115Z,219.38
2018-09-11T11:30:39.207Z,219.38
2018-09-11T11:31:39.255Z,225.00
2018-09-11T11:32:39.327Z,219.38
2018-09-11T11:33:39.395Z,219.38
2018-09-11T11:34:39.463Z,213.75
2018-09-11T11:35:39.539Z,213.75
2018-09-11T11:36:39.676Z,225.00
2018-09-11T11:37:39.671Z,208.13
2018-09-11T11:38:39.743Z,213.75
2018-09-11T11:39:39.807Z,225.00
2018-09-11T11:40:39.891Z,213.75
2018-09-11T11:41:39.981Z,213.75
2018-09-11T11:42:40.021Z,219.38
2018-09-11T11:43:40.092Z,219.38
2018-09-11T11:44:40.160Z,213.75
2018-09-11T11:45:40.385Z,225.00
2018-09-11T11:46:40.303Z,225.00
2018-09-11T11:47:40.370Z,219.38
2018-09-11T11:48:40.440Z,219.38
2018-09-11T11:49:40.508Z,219.38
2018-09-11T11:50:40.584Z,219.38
2018-09-11T11:51:40.656Z,219.38
2018-09-11T11:52:40.719Z,225.00
2018-09-11T11:53:40.788Z,219.38
2018-09-11T11:54:40.892Z,230.63
2018-09-11T11:55:40.932Z,225.00
2018-09-11T11:56:41.004Z,219.38
2018-09-11T11:57:41.063Z,213.75
2018-09-11T11:58:41.136Z,213.75
2018-09-11T11:59:41.204Z,219.38
2018-09-11T12:00:41.372Z,225.00
2018-09-11T12:01:41.344Z,225.00
2018-09-11T12:02:41.416Z,225.00
2018-09-11T12:03:41.484Z,219.38
2018-09-11T12:04:41.556Z,225.00
2018-09-11T12:05:41.633Z,225.00
2018-09-11T12:06:41.700Z,225.00
2018-09-11T12:07:41.805Z,219.38
2018-09-11T12:08:41.837Z,230.63
2018-09-11T12:09:41.904Z,225.00
2018-09-11T12:10:41.980Z,225.00
2018-09-11T12:11:42.048Z,225.00
2018-09-11T12:12:42.112Z,225.00
2018-09-11T12:13:42.180Z,230.63
2018-09-11T12:14:42.252Z,225.00
2018-09-11T12:15:42.326Z,230.63
2018-09-11T12:16:42.448Z,225.00
2018-09-11T12:17:42.464Z,225.00
2018-09-11T12:18:42.534Z,236.25
2018-09-11T12:19:42.601Z,230.63
2018-09-11T12:20:42.673Z,230.63
2018-09-11T12:21:42.748Z,230.63
2018-09-11T12:22:42.817Z,230.63
2018-09-11T12:23:42.880Z,230.63
2018-09-11T12:24:42.956Z,225.00
2018-09-11T12:25:43.021Z,219.38
2018-09-11T12:26:43.251Z,225.00
2018-09-11T12:27:43.161Z,219.38
2018-09-11T12:28:43.237Z,225.00
2018-09-11T12:29:43.301Z,219.38
2018-09-11T12:30:43.373Z,225.00
2018-09-11T12:31:43.449Z,219.38
2018-09-11T12:32:43.521Z,213.75
2018-09-11T12:33:43.583Z,213.75
2018-09-11T12:34:43.654Z,213.75
2018-09-11T12:35:43.725Z,219.38
2018-09-11T12:36:43.797Z,225.00
2018-09-11T12:37:43.870Z,219.38
2018-09-11T12:38:43.930Z,213.75
2018-09-11T12:39:44.005Z,213.75
2018-09-11T12:40:44.071Z,213.75
2018-09-11T12:41:44.235Z,213.75
2018-09-11T12:42:44.210Z,219.38
2018-09-11T12:43:44.287Z,219.38
2018-09-11T12:44:44.352Z,219.38
2018-09-11T12:45:44.493Z,219.38
2018-09-11T12:46:44.778Z,219.38
2018-09-11T12:47:45.002Z,213.75
2018-09-11T12:48:44.695Z,213.75
2018-09-11T12:49:44.703Z,219.38
2018-09-11T12:50:44.770Z,208.13